createdAt,value
2023-04-27T00:00:59.569Z,6.51
2023-04-27T00:04:07.446Z,6.53
2023-04-27T00:07:16.925Z,6.51
2023-04-27T00:10:25.355Z,6.50
2023-04-27T00:13:33.234Z,6.48
2023-04-27T00:16:41.131Z,6.47
2023-04-27T00:19:50.173Z,6.47
2023-04-27T00:22:57.925Z,6.47
2023-04-27T00:26:06.462Z,6.47
2023-04-27T00:29:15.328Z,6.44
2023-04-27T00:32:22.915Z,6.43
2023-04-27T00:35:30.224Z,6.43
2023-04-27T00:38:39.007Z,6.46
2023-04-27T00:41:46.239Z,6.46
2023-04-27T00:44:53.504Z,6.46
2023-04-27T00:48:02.312Z,6.46
2023-04-27T00:51:09.384Z,6.44
2023-04-27T00:54:16.853Z,6.43
2023-04-27T00:57:25.589Z,6.46
2023-04-27T01:00:32.992Z,6.46
2023-04-27T01:03:40.608Z,6.46
2023-04-27T01:06:48.175Z,6.43
2023-04-27T01:09:56.815Z,6.38
2023-04-27T01:13:04.048Z,6.38
2023-04-27T01:16:11.581Z,6.33
2023-04-27T01:19:20.277Z,6.32
2023-04-27T01:22:27.540Z,6.30
2023-04-27T01:25:34.841Z,6.26
2023-04-27T01:28:43.617Z,6.19
2023-04-27T01:31:51.075Z,6.19
2023-04-27T01:34:58.459Z,6.21
2023-04-27T01:38:06.991Z,6.18
2023-04-27T01:41:14.078Z,6.13
2023-04-27T01:44:21.315Z,6.13
2023-04-27T01:47:28.976Z,6.10
2023-04-27T01:50:37.419Z,6.11
2023-04-27T01:53:44.842Z,6.13
2023-04-27T01:56:52.051Z,6.11
2023-04-27T02:00:00.673Z,6.11
2023-04-27T02:03:08.131Z,6.09
2023-04-27T02:06:15.421Z,6.09
2023-04-27T02:09:24.105Z,6.06
2023-04-27T02:12:31.376Z,6.04
2023-04-27T02:15:38.583Z,6.07
2023-04-27T02:18:47.446Z,6.04
2023-04-27T02:21:54.862Z,6.04
2023-04-27T02:25:02.139Z,6.06
2023-04-27T02:28:09.634Z,6.07
2023-04-27T02:31:18.815Z,6.07
2023-04-27T02:34:26.242Z,6.04
2023-04-27T02:37:33.517Z,6.03
2023-04-27T02:40:42.347Z,6.03
2023-04-27T02:43:49.607Z,6.04
2023-04-27T02:46:57.008Z,6.04
2023-04-27T02:50:05.718Z,6.03
2023-04-27T02:53:12.968Z,6.00
2023-04-27T02:56:20.490Z,5.98
2023-04-27T02:59:29.303Z,5.98
2023-04-27T03:02:36.688Z,5.93
2023-04-27T03:05:44.177Z,5.89
2023-04-27T03:08:51.529Z,5.82
2023-04-27T03:12:00.297Z,5.82
2023-04-27T03:15:07.687Z,5.81
2023-04-27T03:18:14.842Z,5.77
2023-04-27T03:21:23.521Z,5.75
2023-04-27T03:24:30.516Z,5.75
2023-04-27T03:27:37.703Z,5.71
2023-04-27T03:30:46.239Z,5.67
2023-04-27T03:33:53.510Z,5.64
2023-04-27T03:37:00.728Z,5.56
2023-04-27T03:40:09.598Z,5.46
2023-04-27T03:43:16.912Z,5.38
2023-04-27T03:46:24.214Z,5.31
2023-04-27T03:49:32.937Z,5.23
2023-04-27T03:52:40.212Z,5.19
2023-04-27T03:55:47.596Z,5.12
2023-04-27T03:58:54.962Z,4.96
2023-04-27T04:02:03.998Z,4.88
2023-04-27T04:05:11.522Z,4.80
2023-04-27T04:08:18.784Z,4.76
2023-04-27T04:11:27.493Z,4.72
2023-04-27T04:14:34.824Z,4.69
2023-04-27T04:17:42.147Z,4.69
2023-04-27T04:20:50.804Z,4.69
2023-04-27T04:23:57.946Z,4.70
2023-04-27T04:27:05.095Z,4.72
2023-04-27T04:30:13.466Z,4.76
2023-04-27T04:33:20.566Z,4.79
2023-04-27T04:36:27.796Z,4.84
2023-04-27T04:39:35.047Z,4.86
2023-04-27T04:42:43.787Z,4.80
2023-04-27T04:45:50.996Z,4.77
2023-04-27T04:48:58.171Z,4.76
2023-04-27T04:52:06.643Z,4.73
2023-04-27T04:55:13.647Z,4.70
2023-04-27T04:58:20.788Z,4.67
2023-04-27T05:01:29.438Z,4.67
2023-04-27T05:04:36.628Z,4.69
2023-04-27T05:07:43.595Z,4.72
2023-04-27T05:10:51.998Z,4.75
2023-04-27T05:13:59.155Z,4.79
2023-04-27T05:17:06.583Z,4.88
2023-04-27T05:20:13.619Z,4.94
2023-04-27T05:23:22.447Z,5.09
2023-04-27T05:26:30.064Z,5.19
2023-04-27T05:29:37.765Z,5.28
2023-04-27T05:32:47.142Z,5.35
2023-04-27T05:35:54.400Z,5.45
2023-04-27T05:39:01.515Z,5.50
2023-04-27T05:42:02.394Z,5.53
2023-04-27T05:45:04.440Z,5.63
2023-04-27T05:48:14.802Z,5.71
2023-04-27T05:51:23.981Z,5.81
2023-04-27T05:54:30.966Z,5.85
2023-04-27T05:57:37.984Z,5.88
2023-04-27T06:00:45.230Z,5.93
2023-04-27T06:03:53.959Z,6.01
2023-04-27T06:07:01.358Z,6.06
2023-04-27T06:10:08.660Z,6.16
2023-04-27T06:13:17.218Z,6.19
2023-04-27T06:16:24.537Z,6.28
2023-04-27T06:19:31.661Z,6.33
2023-04-27T06:22:40.181Z,6.38
2023-04-27T06:25:47.284Z,6.47
2023-04-27T06:28:54.364Z,6.62
2023-04-27T06:32:03.735Z,6.73
2023-04-27T06:35:10.669Z,6.76
2023-04-27T06:38:17.804Z,6.72
2023-04-27T06:41:24.805Z,6.71
2023-04-27T06:44:33.168Z,6.80
2023-04-27T06:47:40.278Z,6.89
2023-04-27T06:50:47.292Z,6.98
2023-04-27T06:53:55.590Z,7.07
2023-04-27T06:57:03.374Z,7.17
2023-04-27T07:00:10.405Z,7.23
2023-04-27T07:03:19.161Z,7.32
2023-04-27T07:06:26.299Z,7.41
2023-04-27T07:09:33.849Z,7.59
2023-04-27T07:12:43.264Z,7.63
2023-04-27T07:15:50.399Z,7.62
2023-04-27T07:18:58.258Z,7.63
2023-04-27T07:22:06.762Z,7.59
2023-04-27T07:25:14.759Z,7.60
2023-04-27T07:28:21.905Z,7.82
2023-04-27T07:31:29.390Z,8.17
2023-04-27T07:34:51.949Z,8.28
2023-04-27T07:37:43.078Z,8.33
2023-04-27T07:40:50.530Z,8.30
2023-04-27T07:43:59.224Z,8.22
2023-04-27T07:47:06.980Z,8.21
2023-04-27T07:50:14.504Z,8.36
2023-04-27T07:53:23.587Z,8.65
2023-04-27T07:56:31.074Z,8.86
2023-04-27T07:59:39.042Z,9.05
2023-04-27T08:02:49.503Z,9.04
2023-04-27T08:05:57.483Z,9.35
2023-04-27T08:09:04.832Z,9.81
2023-04-27T08:12:12.623Z,9.60
2023-04-27T08:15:21.574Z,9.31
2023-04-27T08:18:29.404Z,9.45
2023-04-27T08:19:23.716Z,9.49
2023-04-27T08:22:31.091Z,9.75
2023-04-27T08:25:40.276Z,9.85
2023-04-27T08:28:47.398Z,9.76
2023-04-27T08:31:56.911Z,9.49
2023-04-27T08:34:55.426Z,9.45
2023-04-27T08:38:02.518Z,9.20
2023-04-27T08:41:20.832Z,9.02
2023-04-27T08:44:16.943Z,9.18
2023-04-27T08:47:35.097Z,9.24
2023-04-27T08:50:29.653Z,9.32
2023-04-27T08:53:39.005Z,9.56
2023-04-27T08:56:46.050Z,9.89
2023-04-27T08:59:54.869Z,10.24
2023-04-27T09:03:02.343Z,10.55
2023-04-27T09:06:10.947Z,10.40
2023-04-27T09:09:19.225Z,10.15
2023-04-27T09:12:27.344Z,9.86
2023-04-27T09:15:36.381Z,10.01
2023-04-27T09:18:43.964Z,10.44
2023-04-27T09:21:51.350Z,10.80
2023-04-27T09:25:00.524Z,11.20
2023-04-27T09:28:07.697Z,11.36
2023-04-27T09:31:17.018Z,10.96
2023-04-27T09:34:26.404Z,10.76
2023-04-27T09:37:34.270Z,10.95
2023-04-27T09:40:42.046Z,11.44
2023-04-27T09:43:50.787Z,11.54
2023-04-27T09:46:58.477Z,11.36
2023-04-27T09:50:06.931Z,11.25
2023-04-27T09:53:14.218Z,11.19
2023-04-27T09:56:23.193Z,11.07
2023-04-27T09:59:32.493Z,10.91
2023-04-27T10:02:52.699Z,10.62
2023-04-27T10:05:47.926Z,10.53
2023-04-27T10:08:55.845Z,10.59
2023-04-27T10:12:03.985Z,10.76
2023-04-27T10:15:13.867Z,11.44
2023-04-27T10:18:22.267Z,12.04
2023-04-27T10:21:30.986Z,12.05
2023-04-27T10:24:41.307Z,12.02
2023-04-27T10:27:49.623Z,12.15
2023-04-27T10:30:57.906Z,11.59
2023-04-27T10:34:06.752Z,11.19
2023-04-27T10:37:07.209Z,10.96
2023-04-27T10:40:15.584Z,11.19
2023-04-27T10:43:24.455Z,11.75
2023-04-27T10:46:34.096Z,11.78
2023-04-27T10:49:42.956Z,12.12
2023-04-27T10:52:51.321Z,12.60
2023-04-27T10:56:01.368Z,12.92
2023-04-27T10:59:09.849Z,12.99
2023-04-27T11:02:18.790Z,12.75
2023-04-27T11:05:28.538Z,12.27
2023-04-27T11:08:37.002Z,12.30
2023-04-27T11:11:45.848Z,12.24
2023-04-27T11:14:54.250Z,12.08
2023-04-27T11:18:04.011Z,12.11
2023-04-27T11:21:12.828Z,11.89
2023-04-27T11:24:22.291Z,11.78
2023-04-27T11:27:31.999Z,11.90
2023-04-27T11:30:40.781Z,12.08
2023-04-27T11:33:49.188Z,12.31
2023-04-27T11:37:10.692Z,12.31
2023-04-27T11:40:04.588Z,12.19
2023-04-27T11:43:13.204Z,12.23
2023-04-27T11:46:23.010Z,12.05
2023-04-27T11:49:32.623Z,11.85
2023-04-27T11:52:40.897Z,11.77
2023-04-27T11:55:51.125Z,11.82
2023-04-27T11:58:59.873Z,12.20
2023-04-27T12:02:08.180Z,13.32
2023-04-27T12:05:17.003Z,13.98
2023-04-27T12:08:26.375Z,13.92
2023-04-27T12:11:34.937Z,13.62
2023-04-27T12:14:43.923Z,13.11
2023-04-27T12:17:53.911Z,12.99
2023-04-27T12:21:03.420Z,12.99
2023-04-27T12:24:12.609Z,12.87
2023-04-27T12:27:12.608Z,12.95
2023-04-27T12:30:21.621Z,12.99
2023-04-27T12:33:30.383Z,13.03
2023-04-27T12:36:40.892Z,13.06
2023-04-27T12:39:49.808Z,13.24
2023-04-27T12:43:00.932Z,13.36
2023-04-27T12:46:00.306Z,13.36
2023-04-27T12:48:59.602Z,13.18
2023-04-27T12:52:07.630Z,13.24
2023-04-27T12:55:31.420Z,13.24
2023-04-27T12:58:23.939Z,13.44
2023-04-27T13:01:33.257Z,13.58
2023-04-27T13:04:43.416Z,13.56
2023-04-27T13:07:43.558Z,13.65
2023-04-27T13:10:53.409Z,13.84
2023-04-27T13:14:02.953Z,14.12
2023-04-27T13:17:13.307Z,13.91
2023-04-27T13:20:21.829Z,13.12
2023-04-27T13:23:30.216Z,12.82
2023-04-27T13:26:39.219Z,12.74
2023-04-27T13:29:49.107Z,12.57
2023-04-27T13:33:07.143Z,12.52
2023-04-27T13:36:02.863Z,12.33
2023-04-27T13:39:12.605Z,12.11
2023-04-27T13:42:20.948Z,12.34
2023-04-27T13:45:28.864Z,12.82
2023-04-27T13:48:38.197Z,12.97
2023-04-27T13:51:46.375Z,12.82
2023-04-27T13:54:56.378Z,12.71
2023-04-27T13:58:06.151Z,12.93
2023-04-27T14:01:15.473Z,13.37
2023-04-27T14:04:24.232Z,13.18
2023-04-27T14:07:34.364Z,13.12
2023-04-27T14:10:43.057Z,13.20
2023-04-27T14:13:54.934Z,13.17
2023-04-27T14:16:52.604Z,13.07
2023-04-27T14:20:05.940Z,13.02
2023-04-27T14:23:03.422Z,13.33
2023-04-27T14:26:12.452Z,13.61
2023-04-27T14:29:22.137Z,13.70
2023-04-27T14:32:31.135Z,13.41
2023-04-27T14:35:40.044Z,13.70
2023-04-27T14:38:49.652Z,13.87
2023-04-27T14:41:58.862Z,13.96
2023-04-27T14:45:07.386Z,14.17
2023-04-27T14:48:17.938Z,14.56
2023-04-27T14:51:26.192Z,14.72
2023-04-27T14:54:34.879Z,14.87
2023-04-27T14:57:43.598Z,14.87
2023-04-27T15:00:53.904Z,15.17
2023-04-27T15:04:02.766Z,15.26
2023-04-27T15:07:10.665Z,15.38
2023-04-27T15:10:20.379Z,15.35
2023-04-27T15:13:30.393Z,15.51
2023-04-27T15:16:39.130Z,15.51
2023-04-27T15:19:55.264Z,15.54
2023-04-27T15:23:03.657Z,15.48
2023-04-27T15:26:12.233Z,15.52
2023-04-27T15:29:22.135Z,15.51
2023-04-27T15:32:34.274Z,15.93
2023-04-27T15:35:32.204Z,15.92
2023-04-27T15:38:42.459Z,15.08
2023-04-27T15:41:50.755Z,14.46
2023-04-27T15:44:59.759Z,14.62
2023-04-27T15:48:07.735Z,15.09
2023-04-27T15:51:18.483Z,15.27
2023-04-27T15:54:26.832Z,15.51
2023-04-27T15:57:35.113Z,15.31
2023-04-27T16:00:44.930Z,15.42
2023-04-27T16:03:53.803Z,15.15
2023-04-27T16:07:02.105Z,14.54
2023-04-27T16:10:01.718Z,14.24
2023-04-27T16:13:09.971Z,14.02
2023-04-27T16:16:18.337Z,14.14
2023-04-27T16:19:28.785Z,14.60
2023-04-27T16:22:37.176Z,14.60
2023-04-27T16:25:46.427Z,14.37
2023-04-27T16:28:54.275Z,14.34
2023-04-27T16:32:05.092Z,14.47
2023-04-27T16:35:13.060Z,14.62
2023-04-27T16:38:21.470Z,14.67
2023-04-27T16:41:32.240Z,14.39
2023-04-27T16:44:41.188Z,13.99
2023-04-27T16:47:49.702Z,13.80
2023-04-27T16:50:59.969Z,13.41
2023-04-27T16:54:08.917Z,13.36
2023-04-27T16:57:18.861Z,13.33
2023-04-27T17:00:28.992Z,13.25
2023-04-27T17:03:37.111Z,13.21
2023-04-27T17:06:46.128Z,13.24
2023-04-27T17:09:55.049Z,13.18
2023-04-27T17:13:04.661Z,12.97
2023-04-27T17:16:12.926Z,12.85
2023-04-27T17:19:21.386Z,12.77
2023-04-27T17:22:31.499Z,12.67
2023-04-27T17:25:39.165Z,12.60
2023-04-27T17:28:47.803Z,12.56
2023-04-27T17:31:57.893Z,12.51
2023-04-27T17:35:06.248Z,12.42
2023-04-27T17:38:14.754Z,12.30
2023-04-27T17:41:24.944Z,12.21
2023-04-27T17:44:34.459Z,12.08
2023-04-27T17:47:43.113Z,11.94
2023-04-27T17:50:52.702Z,11.86
2023-04-27T17:54:01.940Z,11.82
2023-04-27T17:57:10.312Z,11.75
2023-04-27T18:00:19.176Z,11.75
2023-04-27T18:03:29.547Z,11.80
2023-04-27T18:06:38.131Z,11.78
2023-04-27T18:09:46.317Z,11.77
2023-04-27T18:12:56.526Z,11.72
2023-04-27T18:16:05.056Z,11.50
2023-04-27T18:19:13.775Z,11.29
2023-04-27T18:22:24.021Z,11.14
2023-04-27T18:25:32.738Z,11.03
2023-04-27T18:28:41.015Z,10.94
2023-04-27T18:31:40.717Z,10.80
2023-04-27T18:34:49.340Z,10.65
2023-04-27T18:37:57.255Z,10.55
2023-04-27T18:41:06.796Z,10.44
2023-04-27T18:44:16.112Z,10.44
2023-04-27T18:47:25.100Z,10.42
2023-04-27T18:50:33.724Z,10.32
2023-04-27T18:53:44.124Z,10.26
2023-04-27T18:56:52.551Z,10.28
2023-04-27T19:00:01.312Z,10.25
2023-04-27T19:03:12.156Z,10.21
2023-04-27T19:06:21.389Z,10.07
2023-04-27T19:09:30.721Z,10.00
2023-04-27T19:12:40.895Z,9.91
2023-04-27T19:15:49.202Z,9.82
2023-04-27T19:18:58.202Z,9.71
2023-04-27T19:22:06.685Z,9.60
2023-04-27T19:25:16.031Z,9.52
2023-04-27T19:28:24.981Z,9.50
2023-04-27T19:31:32.930Z,9.53
2023-04-27T19:34:43.636Z,9.49
2023-04-27T19:37:52.393Z,9.40
2023-04-27T19:41:01.641Z,9.32
2023-04-27T19:44:11.384Z,9.27
2023-04-27T19:47:20.496Z,9.15
2023-04-27T19:50:30.090Z,9.01
2023-04-27T19:53:39.959Z,8.88
2023-04-27T19:56:48.607Z,8.73
2023-04-27T19:59:58.043Z,8.66
2023-04-27T20:03:08.767Z,8.54
2023-04-27T20:06:17.271Z,8.54
2023-04-27T20:09:26.286Z,8.54
2023-04-27T20:15:36.850Z,8.72
2023-04-27T20:18:45.889Z,8.78
2023-04-27T20:21:54.699Z,8.78
2023-04-27T20:24:54.248Z,8.76
2023-04-27T20:28:03.902Z,8.71
2023-04-27T20:31:11.988Z,8.68
2023-04-27T20:34:22.537Z,8.71
2023-04-27T20:37:30.933Z,8.66
2023-04-27T20:40:39.307Z,8.65
2023-04-27T20:43:50.185Z,8.66
2023-04-27T20:46:58.293Z,8.69
2023-04-27T20:50:07.064Z,8.68
2023-04-27T20:53:15.872Z,8.62
2023-04-27T20:56:25.324Z,8.55
2023-04-27T20:59:33.949Z,8.47
2023-04-27T21:02:42.710Z,8.30
2023-04-27T21:05:53.397Z,8.18
2023-04-27T21:09:02.484Z,8.10
2023-04-27T21:12:11.860Z,8.11
2023-04-27T21:15:11.533Z,8.17
2023-04-27T21:18:29.607Z,8.15
2023-04-27T21:21:26.029Z,8.17
2023-04-27T21:24:36.294Z,8.17
2023-04-27T21:27:44.686Z,8.11
2023-04-27T21:30:53.345Z,8.11
2023-04-27T21:34:01.678Z,8.07
2023-04-27T21:37:11.994Z,8.03
2023-04-27T21:40:20.310Z,8.00
2023-04-27T21:43:29.154Z,7.99
2023-04-27T21:46:38.986Z,8.00
2023-04-27T21:49:47.942Z,8.03
2023-04-27T21:52:56.695Z,8.04
2023-04-27T21:56:07.007Z,8.04
2023-04-27T21:59:15.427Z,8.07
2023-04-27T22:02:24.669Z,8.11
2023-04-27T22:05:34.566Z,8.14
2023-04-27T22:08:43.330Z,8.17
2023-04-27T22:11:51.959Z,8.15
2023-04-27T22:15:00.028Z,8.15
2023-04-27T22:18:10.637Z,8.17
2023-04-27T22:21:18.730Z,8.15
2023-04-27T22:24:27.710Z,8.14
2023-04-27T22:27:35.309Z,8.15
2023-04-27T22:30:33.782Z,8.14
2023-04-27T22:33:41.968Z,8.12
2023-04-27T22:36:52.455Z,8.10
2023-04-27T22:40:01.373Z,8.04
2023-04-27T22:43:09.809Z,8.02
2023-04-27T22:46:20.688Z,7.99
2023-04-27T22:49:28.553Z,7.92
2023-04-27T22:52:38.130Z,7.84
2023-04-27T22:55:46.681Z,7.78
2023-04-27T22:58:56.386Z,7.71
2023-04-27T23:02:05.933Z,7.69
2023-04-27T23:05:14.353Z,7.62
2023-04-27T23:08:25.163Z,7.58
2023-04-27T23:11:34.240Z,7.50
2023-04-27T23:14:42.449Z,7.41
2023-04-27T23:17:52.091Z,7.32
2023-04-27T23:21:01.129Z,7.26
2023-04-27T23:24:09.561Z,7.23
2023-04-27T23:27:20.320Z,7.20
2023-04-27T23:30:28.916Z,7.16
2023-04-27T23:33:37.609Z,7.15
2023-04-27T23:36:47.848Z,7.08
2023-04-27T23:39:55.854Z,7.07
2023-04-27T23:43:05.050Z,7.04
2023-04-27T23:46:14.282Z,7.01
2023-04-27T23:49:23.695Z,6.97
2023-04-27T23:52:33.292Z,6.95
2023-04-27T23:55:42.257Z,6.94
2023-04-27T23:58:51.725Z,6.97
